createdAt,value
2019-01-21T00:00:38.820Z,-2.40
2019-01-21T00:03:14.371Z,-2.30
2019-01-21T00:05:39.432Z,-2.30
2019-01-21T00:08:08.585Z,-2.30
2019-01-21T00:10:37.707Z,-2.30
2019-01-21T00:13:06.904Z,-2.20
2019-01-21T00:15:36.071Z,-2.30
2019-01-21T00:18:05.637Z,-2.30
2019-01-21T00:20:35.097Z,-2.30
2019-01-21T00:23:04.541Z,-2.40
2019-01-21T00:25:33.698Z,-2.40
2019-01-21T00:28:02.882Z,-2.30
2019-01-21T00:30:32.102Z,-2.30
2019-01-21T00:33:01.259Z,-2.40
2019-01-21T00:35:30.577Z,-2.40
2019-01-21T00:37:59.715Z,-2.50
2019-01-21T00:40:28.946Z,-2.50
2019-01-21T00:42:58.129Z,-2.50
2019-01-21T00:45:27.286Z,-2.60
2019-01-21T00:47:56.488Z,-2.60
2019-01-21T00:50:25.708Z,-2.50
2019-01-21T00:52:54.868Z,-2.40
2019-01-21T00:55:24.169Z,-2.40
2019-01-21T00:57:53.478Z,-2.60
2019-01-21T01:00:24.537Z,-2.70
2019-01-21T01:02:54.244Z,-2.70
2019-01-21T01:05:23.721Z,-2.60
2019-01-21T01:07:52.879Z,-2.60
2019-01-21T01:10:22.056Z,-2.60
2019-01-21T01:12:51.202Z,-2.60
2019-01-21T01:15:20.393Z,-2.60
2019-01-21T01:17:49.568Z,-2.60
2019-01-21T01:20:22.627Z,-2.80
2019-01-21T01:22:51.737Z,-2.70
2019-01-21T01:25:20.898Z,-2.80
2019-01-21T01:27:50.161Z,-2.80
2019-01-21T01:30:19.349Z,-2.70
2019-01-21T01:32:48.498Z,-2.70
2019-01-21T01:35:18.050Z,-2.60
2019-01-21T01:37:48.208Z,-2.60
2019-01-21T01:40:19.090Z,-2.60
2019-01-21T01:42:48.948Z,-2.60
2019-01-21T01:45:23.957Z,-2.70
2019-01-21T01:48:05.924Z,-2.70
2019-01-21T01:50:35.243Z,-2.70
2019-01-21T01:53:04.789Z,-2.80
2019-01-21T01:55:34.624Z,-2.80
2019-01-21T01:58:05.959Z,-2.70
2019-01-21T02:00:36.201Z,-2.60
2019-01-21T02:03:05.535Z,-2.50
2019-01-21T02:05:34.657Z,-2.60
2019-01-21T02:08:04.009Z,-2.60
2019-01-21T02:10:33.430Z,-2.50
2019-01-21T02:13:02.600Z,-2.50
2019-01-21T02:15:31.726Z,-2.60
2019-01-21T02:18:01.247Z,-2.40
2019-01-21T02:20:30.408Z,-2.40
2019-01-21T02:23:04.941Z,-2.40
2019-01-21T02:25:54.287Z,-2.40
2019-01-21T02:29:11.632Z,-2.40
2019-01-21T02:32:36.722Z,-2.40
2019-01-21T02:35:35.933Z,-2.40
2019-01-21T02:38:42.043Z,-2.60
2019-01-21T02:41:33.546Z,-2.50
2019-01-21T02:44:55.689Z,-2.60
2019-01-21T02:48:06.130Z,-2.60
2019-01-21T02:51:02.313Z,-2.60
2019-01-21T02:53:56.397Z,-2.60
2019-01-21T02:57:12.905Z,-2.80
2019-01-21T03:00:10.686Z,-2.60
2019-01-21T03:03:15.022Z,-2.50
2019-01-21T03:06:43.456Z,-2.50
2019-01-21T03:09:56.894Z,-2.60
2019-01-21T03:12:58.162Z,-2.60
2019-01-21T03:16:24.156Z,-2.60
2019-01-21T03:19:19.849Z,-2.70
2019-01-21T03:22:42.304Z,-2.50
2019-01-21T03:25:47.917Z,-2.60
2019-01-21T03:28:56.713Z,-2.40
2019-01-21T03:32:09.278Z,-2.40
2019-01-21T03:35:25.449Z,-2.30
2019-01-21T03:38:25.805Z,-2.50
2019-01-21T03:41:32.133Z,-2.40
2019-01-21T03:44:43.353Z,-2.50
2019-01-21T03:47:41.381Z,-2.50
2019-01-21T03:51:03.078Z,-2.50
2019-01-21T03:54:04.612Z,-2.50
2019-01-21T03:57:07.967Z,-2.50
2019-01-21T04:00:11.268Z,-2.60
2019-01-21T04:03:00.133Z,-2.40
2019-01-21T04:05:42.070Z,-2.30
2019-01-21T04:09:06.501Z,-2.20
2019-01-21T04:12:03.017Z,-2.30
2019-01-21T04:14:54.841Z,-2.30
2019-01-21T04:17:56.719Z,-2.10
2019-01-21T04:21:16.250Z,-2.10
2019-01-21T04:23:58.828Z,-2.20
2019-01-21T04:26:53.033Z,-2.30
2019-01-21T04:30:14.943Z,-2.10
2019-01-21T04:33:32.685Z,-2.00
2019-01-21T04:37:00.909Z,-2.00
2019-01-21T04:39:55.562Z,-2.30
2019-01-21T04:43:01.363Z,-2.40
2019-01-21T04:46:03.604Z,-2.30
2019-01-21T04:49:09.459Z,-2.30
2019-01-21T04:52:05.607Z,-2.30
2019-01-21T04:55:14.396Z,-2.30
2019-01-21T04:58:08.633Z,-2.40
2019-01-21T05:00:57.729Z,-2.30
2019-01-21T05:03:55.096Z,-2.20
2019-01-21T05:06:54.239Z,-2.30
2019-01-21T05:10:22.705Z,-2.40
2019-01-21T05:13:49.190Z,-2.40
2019-01-21T05:17:03.903Z,-2.30
2019-01-21T05:19:46.929Z,-2.30
2019-01-21T05:22:32.376Z,-2.40
2019-01-21T05:25:40.746Z,-2.40
2019-01-21T05:28:38.675Z,-2.40
2019-01-21T05:31:49.289Z,-2.50
2019-01-21T05:35:07.382Z,-2.50
2019-01-21T05:38:03.919Z,-2.50
2019-01-21T05:40:52.690Z,-2.50
2019-01-21T05:43:57.558Z,-2.50
2019-01-21T05:46:55.415Z,-2.40
2019-01-21T05:49:52.537Z,-2.30
2019-01-21T05:53:01.483Z,-2.20
2019-01-21T05:56:09.265Z,-2.10
2019-01-21T05:59:03.045Z,-2.10
2019-01-21T06:01:58.352Z,-2.10
2019-01-21T06:04:56.390Z,-2.20
2019-01-21T06:07:55.732Z,-2.10
2019-01-21T06:10:44.205Z,-2.10
2019-01-21T06:14:15.764Z,-2.20
2019-01-21T06:17:08.311Z,-2.20
2019-01-21T06:20:04.422Z,-2.30
2019-01-21T06:23:07.564Z,-2.20
2019-01-21T06:26:09.528Z,-2.00
2019-01-21T06:29:08.649Z,-2.00
2019-01-21T06:31:48.457Z,-2.00
2019-01-21T06:34:42.265Z,-1.90
2019-01-21T06:37:48.468Z,-1.80
2019-01-21T06:40:34.133Z,-1.90
2019-01-21T06:43:43.110Z,-1.90
2019-01-21T06:46:35.353Z,-1.90
2019-01-21T06:49:41.325Z,-2.10
2019-01-21T06:53:00.697Z,-2.10
2019-01-21T06:55:56.934Z,-2.10
2019-01-21T06:59:09.993Z,-2.10
2019-01-21T07:02:13.008Z,-2.20
2019-01-21T07:05:03.648Z,-2.10
2019-01-21T07:08:11.005Z,-2.10
2019-01-21T07:11:15.145Z,-1.90
2019-01-21T07:14:37.944Z,-1.90
2019-01-21T07:17:43.173Z,-1.90
2019-01-21T07:20:42.905Z,-1.90
2019-01-21T07:24:05.507Z,-1.90
2019-01-21T07:27:12.639Z,-1.80
2019-01-21T07:30:25.857Z,-1.90
2019-01-21T07:33:44.977Z,-1.90
2019-01-21T07:37:07.278Z,-1.90
2019-01-21T07:40:18.108Z,-1.80
2019-01-21T07:43:23.657Z,-1.90
2019-01-21T07:46:25.132Z,-1.90
2019-01-21T07:49:36.829Z,-1.80
2019-01-21T07:52:40.850Z,-1.90
2019-01-21T07:55:49.911Z,-1.80
2019-01-21T07:58:56.034Z,-1.70
2019-01-21T08:01:47.356Z,-1.80
2019-01-21T08:04:44.225Z,-1.80
2019-01-21T08:07:45.785Z,-1.80
2019-01-21T08:10:52.074Z,-1.70
2019-01-21T08:13:34.667Z,-1.70
2019-01-21T08:16:36.697Z,-1.80
2019-01-21T08:19:41.753Z,-1.80
2019-01-21T08:22:54.838Z,-1.90
2019-01-21T08:25:41.873Z,-1.90
2019-01-21T08:28:43.789Z,-1.90
2019-01-21T08:31:37.511Z,-1.80
2019-01-21T08:34:31.615Z,-1.70
2019-01-21T08:37:13.794Z,-1.70
2019-01-21T08:40:17.027Z,-1.60
2019-01-21T08:43:18.571Z,-1.60
2019-01-21T08:46:21.561Z,-1.60
2019-01-21T08:49:32.144Z,-1.70
2019-01-21T08:52:23.666Z,-1.70
2019-01-21T08:55:36.387Z,-1.70
2019-01-21T08:58:33.489Z,-1.60
2019-01-21T09:01:37.881Z,-1.60
2019-01-21T09:04:44.689Z,-1.50
2019-01-21T09:07:50.738Z,-1.60
2019-01-21T09:10:42.585Z,-1.70
2019-01-21T09:13:50.733Z,-1.70
2019-01-21T09:17:10.193Z,-1.70
2019-01-21T09:20:10.781Z,-1.50
2019-01-21T09:23:12.993Z,-1.40
2019-01-21T09:26:23.292Z,-1.40
2019-01-21T09:29:21.413Z,-1.40
2019-01-21T09:32:31.036Z,-1.30
2019-01-21T09:35:24.501Z,-1.40
2019-01-21T09:38:26.657Z,-1.40
2019-01-21T09:41:22.416Z,-1.50
2019-01-21T09:44:09.380Z,-1.40
2019-01-21T09:46:49.769Z,-1.40
2019-01-21T09:49:17.328Z,-1.20
2019-01-21T09:51:57.513Z,-1.20
2019-01-21T09:54:28.309Z,-1.20
2019-01-21T09:56:58.845Z,-1.10
2019-01-21T09:59:28.073Z,-1.10
2019-01-21T10:02:03.710Z,-1.20
2019-01-21T10:04:53.864Z,-1.30
2019-01-21T10:07:50.413Z,-1.10
2019-01-21T10:10:40.487Z,-1.10
2019-01-21T10:13:43.961Z,-1.10
2019-01-21T10:16:53.704Z,-1.20
2019-01-21T10:20:06.729Z,-1.10
2019-01-21T10:23:29.125Z,-1.30
2019-01-21T10:26:57.373Z,-1.10
2019-01-21T10:30:09.871Z,-1.20
2019-01-21T10:33:29.381Z,-1.40
2019-01-21T10:36:42.586Z,-1.50
2019-01-21T10:39:52.532Z,-1.30
2019-01-21T10:42:52.593Z,-1.20
2019-01-21T10:45:46.950Z,-1.10
2019-01-21T10:48:59.945Z,-1.30
2019-01-21T10:52:12.933Z,-1.20
2019-01-21T10:55:25.823Z,-1.20
2019-01-21T10:58:16.549Z,-1.30
2019-01-21T11:01:30.995Z,-1.30
2019-01-21T11:04:43.886Z,-1.40
2019-01-21T11:07:39.796Z,-1.40
2019-01-21T11:10:29.826Z,-1.40
2019-01-21T11:13:36.470Z,-1.40
2019-01-21T11:16:17.097Z,-1.40
2019-01-21T11:19:14.917Z,-1.40
2019-01-21T11:22:09.825Z,-1.30
2019-01-21T11:24:53.276Z,-1.30
2019-01-21T11:28:02.513Z,-1.30
2019-01-21T11:30:54.540Z,-1.30
2019-01-21T11:33:51.892Z,-1.20
2019-01-21T11:36:50.272Z,-1.10
2019-01-21T11:39:59.118Z,-1.00
2019-01-21T11:43:06.156Z,-1.00
2019-01-21T11:46:06.287Z,-1.10
2019-01-21T11:49:01.742Z,-1.40
2019-01-21T11:52:17.467Z,-1.40
2019-01-21T11:55:15.177Z,-1.30
2019-01-21T11:58:11.669Z,-1.30
2019-01-21T12:01:03.812Z,-1.30
2019-01-21T12:03:44.290Z,-1.30
2019-01-21T12:06:37.811Z,-1.20
2019-01-21T12:09:54.637Z,-1.10
2019-01-21T12:12:39.893Z,-0.90
2019-01-21T12:15:54.750Z,-0.80
2019-01-21T12:18:37.286Z,-0.80
2019-01-21T12:21:59.588Z,-0.80
2019-01-21T12:24:45.741Z,-0.90
2019-01-21T12:28:20.493Z,-1.00
2019-01-21T12:31:13.355Z,-0.80
2019-01-21T12:34:04.193Z,-1.00
2019-01-21T12:37:25.676Z,-1.20
2019-01-21T12:40:23.536Z,-1.10
2019-01-21T12:43:07.477Z,-0.90
2019-01-21T12:46:16.761Z,-0.70
2019-01-21T12:49:07.961Z,-0.70
2019-01-21T12:52:04.821Z,-0.60
2019-01-21T12:55:30.821Z,-0.50
2019-01-21T12:58:34.273Z,-0.70
2019-01-21T13:01:40.006Z,-0.70
2019-01-21T13:04:34.661Z,-0.80
2019-01-21T13:07:33.801Z,-0.70
2019-01-21T13:10:44.741Z,-0.80
2019-01-21T13:13:46.029Z,-0.80
2019-01-21T13:17:01.919Z,-1.00
2019-01-21T13:20:12.089Z,-1.20
2019-01-21T13:23:13.317Z,-1.00
2019-01-21T13:26:26.374Z,-0.90
2019-01-21T13:29:20.054Z,-1.10
2019-01-21T13:32:20.502Z,-1.20
2019-01-21T13:35:24.731Z,-1.30
2019-01-21T13:38:26.796Z,-1.60
2019-01-21T13:41:23.421Z,-1.60
2019-01-21T13:44:31.037Z,-1.60
2019-01-21T13:47:39.285Z,-1.60
2019-01-21T13:50:37.216Z,-1.50
2019-01-21T13:54:03.170Z,-1.30
2019-01-21T13:57:07.905Z,-1.70
2019-01-21T14:00:36.206Z,-1.60
2019-01-21T14:03:46.572Z,-1.40
2019-01-21T14:06:40.388Z,-1.40
2019-01-21T14:10:05.408Z,-1.40
2019-01-21T14:13:14.965Z,-1.40
2019-01-21T14:16:01.710Z,-1.30
2019-01-21T14:19:26.180Z,-1.30
2019-01-21T14:22:30.793Z,-1.20
2019-01-21T14:25:42.067Z,-1.10
2019-01-21T14:28:58.817Z,-1.20
2019-01-21T14:32:18.661Z,-1.20
2019-01-21T14:35:34.372Z,-1.30
2019-01-21T14:38:43.134Z,-1.20
2019-01-21T14:41:38.018Z,-1.20
2019-01-21T14:44:51.634Z,-1.40
2019-01-21T14:48:11.245Z,-1.60
2019-01-21T14:51:42.977Z,-1.60
2019-01-21T14:54:39.549Z,-1.70
2019-01-21T14:57:46.942Z,-1.40
2019-01-21T15:01:00.115Z,-1.30
2019-01-21T15:04:06.375Z,-1.30
2019-01-21T15:07:00.200Z,-1.30
2019-01-21T15:10:28.553Z,-1.20
2019-01-21T15:13:50.829Z,-1.30
2019-01-21T15:16:55.469Z,-1.40
2019-01-21T15:19:48.714Z,-1.50
2019-01-21T15:22:50.703Z,-1.70
2019-01-21T15:26:03.681Z,-1.80
2019-01-21T15:29:01.263Z,-2.00
2019-01-21T15:32:11.585Z,-2.10
2019-01-21T15:34:59.907Z,-2.10
2019-01-21T15:37:51.049Z,-2.20
2019-01-21T15:40:43.620Z,-2.40
2019-01-21T15:43:47.905Z,-2.30
2019-01-21T15:46:54.029Z,-2.30
2019-01-21T15:50:19.545Z,-2.20
2019-01-21T15:53:26.881Z,-2.10
2019-01-21T15:56:11.061Z,-2.20
2019-01-21T15:59:08.070Z,-2.10
2019-01-21T16:02:17.511Z,-1.90
2019-01-21T16:05:17.620Z,-1.80
2019-01-21T16:08:17.216Z,-1.70
2019-01-21T16:11:16.509Z,-1.80
2019-01-21T16:14:04.952Z,-1.70
2019-01-21T16:17:24.657Z,-1.60
2019-01-21T16:20:22.557Z,-1.50
2019-01-21T16:23:36.009Z,-1.60
2019-01-21T16:26:26.366Z,-1.70
2019-01-21T16:29:30.509Z,-1.80
2019-01-21T16:32:32.996Z,-1.80
2019-01-21T16:35:39.401Z,-1.70
2019-01-21T16:38:33.745Z,-1.60
2019-01-21T16:41:34.193Z,-1.70
2019-01-21T16:44:03.383Z,-1.80
2019-01-21T16:46:32.588Z,-1.70
2019-01-21T16:49:01.743Z,-1.60
2019-01-21T16:51:30.949Z,-1.60
2019-01-21T16:54:00.284Z,-1.50
2019-01-21T16:56:29.409Z,-1.60
2019-01-21T16:58:58.532Z,-1.70
2019-01-21T17:01:27.686Z,-1.80
2019-01-21T17:03:56.834Z,-1.90
2019-01-21T17:06:25.999Z,-1.90
2019-01-21T17:08:55.167Z,-2.00
2019-01-21T17:11:24.317Z,-2.00
2019-01-21T17:13:53.661Z,-2.10
2019-01-21T17:16:22.962Z,-2.20
2019-01-21T17:18:52.217Z,-2.20
2019-01-21T17:21:26.920Z,-2.30
2019-01-21T17:23:52.332Z,-2.30
2019-01-21T17:26:21.457Z,-2.00
2019-01-21T17:28:50.677Z,-2.00
2019-01-21T17:31:19.835Z,-1.90
2019-01-21T17:33:48.981Z,-1.80
2019-01-21T17:36:18.128Z,-2.00
2019-01-21T17:38:47.353Z,-2.10
2019-01-21T17:41:16.857Z,-2.10
2019-01-21T17:43:45.993Z,-2.10
2019-01-21T17:46:15.155Z,-2.20
2019-01-21T17:48:44.277Z,-2.30
2019-01-21T17:51:13.472Z,-2.30
2019-01-21T17:53:42.608Z,-2.20
2019-01-21T17:56:11.748Z,-2.20
2019-01-21T17:58:40.871Z,-2.10
2019-01-21T18:01:10.125Z,-2.10
2019-01-21T18:03:39.490Z,-2.00
2019-01-21T18:06:08.762Z,-2.00
2019-01-21T18:08:37.905Z,-2.00
2019-01-21T18:11:07.093Z,-2.10
2019-01-21T18:13:36.281Z,-2.20
2019-01-21T18:16:05.507Z,-2.20
2019-01-21T18:18:34.746Z,-2.20
2019-01-21T18:21:04.131Z,-2.40
2019-01-21T18:23:33.275Z,-2.40
2019-01-21T18:26:02.415Z,-2.30
2019-01-21T18:28:31.617Z,-2.20
2019-01-21T18:31:00.737Z,-2.30
2019-01-21T18:33:29.898Z,-2.60
2019-01-21T18:35:59.150Z,-2.70
2019-01-21T18:38:28.344Z,-2.70
2019-01-21T18:40:57.472Z,-2.60
2019-01-21T18:43:27.012Z,-2.50
2019-01-21T18:45:56.176Z,-2.60
2019-01-21T18:48:25.493Z,-2.60
2019-01-21T18:50:54.609Z,-2.60
2019-01-21T18:53:23.745Z,-2.60
2019-01-21T18:55:53.014Z,-2.70
2019-01-21T18:58:22.198Z,-2.80
2019-01-21T19:00:51.421Z,-2.80
2019-01-21T19:03:20.653Z,-2.70
2019-01-21T19:05:49.924Z,-2.60
2019-01-21T19:08:19.134Z,-2.60
2019-01-21T19:10:48.405Z,-2.50
2019-01-21T19:13:17.605Z,-2.40
2019-01-21T19:15:46.790Z,-2.40
2019-01-21T19:18:15.989Z,-2.60
2019-01-21T19:20:45.121Z,-2.70
2019-01-21T19:23:14.319Z,-2.80
2019-01-21T19:25:43.448Z,-2.80
2019-01-21T19:28:12.564Z,-2.50
2019-01-21T19:30:41.780Z,-2.40
2019-01-21T19:33:10.918Z,-2.30
2019-01-21T19:35:40.189Z,-2.30
2019-01-21T19:38:09.383Z,-2.50
2019-01-21T19:40:38.533Z,-2.70
2019-01-21T19:43:08.221Z,-2.80
2019-01-21T19:45:37.411Z,-2.80
2019-01-21T19:48:06.524Z,-2.80
2019-01-21T19:50:35.718Z,-2.70
2019-01-21T19:53:04.957Z,-2.70
2019-01-21T19:55:36.951Z,-2.60
2019-01-21T19:58:07.389Z,-2.70
2019-01-21T20:00:36.670Z,-2.70
2019-01-21T20:03:06.089Z,-2.80
2019-01-21T20:05:35.270Z,-2.80
2019-01-21T20:08:04.818Z,-3.00
2019-01-21T20:10:34.038Z,-2.90
2019-01-21T20:13:03.308Z,-2.80
2019-01-21T20:15:32.589Z,-2.80
2019-01-21T20:18:01.884Z,-2.60
2019-01-21T20:20:33.765Z,-2.60
2019-01-21T20:23:02.937Z,-2.60
2019-01-21T20:25:32.288Z,-2.70
2019-01-21T20:28:01.542Z,-2.90
2019-01-21T20:30:30.768Z,-3.00
2019-01-21T20:33:00.049Z,-2.90
2019-01-21T20:35:29.333Z,-2.80
2019-01-21T20:37:58.554Z,-2.80
2019-01-21T20:40:28.502Z,-2.90
2019-01-21T20:42:57.810Z,-2.90
2019-01-21T20:45:26.963Z,-3.10
2019-01-21T20:47:56.197Z,-3.10
2019-01-21T20:50:27.630Z,-3.00
2019-01-21T20:52:56.793Z,-3.10
2019-01-21T20:55:26.585Z,-3.30
2019-01-21T20:57:55.872Z,-3.50
2019-01-21T21:00:27.150Z,-3.30
2019-01-21T21:02:57.213Z,-3.20
2019-01-21T21:05:26.750Z,-3.10
2019-01-21T21:07:55.897Z,-3.10
2019-01-21T21:10:25.213Z,-3.20
2019-01-21T21:12:54.483Z,-3.20
2019-01-21T21:15:26.312Z,-3.20
2019-01-21T21:17:55.534Z,-3.20
2019-01-21T21:20:24.694Z,-3.40
2019-01-21T21:22:53.913Z,-3.20
2019-01-21T21:25:23.584Z,-3.20
2019-01-21T21:27:52.903Z,-3.30
2019-01-21T21:30:32.953Z,-3.40
2019-01-21T21:33:02.241Z,-3.60
2019-01-21T21:35:31.498Z,-3.70
2019-01-21T21:38:01.028Z,-3.60
2019-01-21T21:40:30.341Z,-3.70
2019-01-21T21:42:59.736Z,-3.70
2019-01-21T21:45:28.881Z,-3.60
2019-01-21T21:48:00.930Z,-3.60
2019-01-21T21:50:31.041Z,-3.50
2019-01-21T21:53:00.300Z,-3.30
2019-01-21T21:55:29.738Z,-3.20
2019-01-21T21:57:59.135Z,-3.10
2019-01-21T22:00:29.152Z,-3.00
2019-01-21T22:02:58.470Z,-3.00
2019-01-21T22:05:27.586Z,-3.00
2019-01-21T22:07:56.808Z,-3.10
2019-01-21T22:10:27.977Z,-3.00
2019-01-21T22:12:57.149Z,-3.20
2019-01-21T22:15:26.686Z,-3.40
2019-01-21T22:17:55.882Z,-3.50
2019-01-21T22:20:25.609Z,-3.60
2019-01-21T22:22:54.836Z,-3.40
2019-01-21T22:25:24.503Z,-3.30
2019-01-21T22:27:53.766Z,-3.40
2019-01-21T22:30:25.307Z,-3.40
2019-01-21T22:32:54.581Z,-3.30
2019-01-21T22:35:23.894Z,-3.60
2019-01-21T22:37:53.245Z,-3.50
2019-01-21T22:40:23.474Z,-3.50
2019-01-21T22:42:52.623Z,-3.50
2019-01-21T22:45:22.369Z,-3.40
2019-01-21T22:47:51.621Z,-3.60
2019-01-21T22:50:21.361Z,-3.80
2019-01-21T22:52:50.472Z,-3.80
2019-01-21T22:55:19.609Z,-3.60
2019-01-21T22:57:48.935Z,-3.50
2019-01-21T23:00:44.576Z,-3.40
2019-01-21T23:03:14.381Z,-3.40
2019-01-21T23:05:43.506Z,-3.40
2019-01-21T23:08:12.673Z,-3.60
2019-01-21T23:10:41.842Z,-3.70
2019-01-21T23:13:11.004Z,-3.70
2019-01-21T23:15:40.288Z,-3.70
2019-01-21T23:18:09.490Z,-3.50
2019-01-21T23:20:38.701Z,-3.70
2019-01-21T23:23:08.337Z,-3.50
2019-01-21T23:25:37.478Z,-3.60
2019-01-21T23:28:06.689Z,-3.60
2019-01-21T23:30:35.917Z,-3.70
2019-01-21T23:33:05.113Z,-3.60
2019-01-21T23:35:34.711Z,-3.50
2019-01-21T23:38:04.209Z,-3.60
2019-01-21T23:40:33.513Z,-3.50
2019-01-21T23:43:02.702Z,-3.40
2019-01-21T23:45:31.889Z,-3.50
2019-01-21T23:48:01.041Z,-3.40
2019-01-21T23:50:30.181Z,-3.50
2019-01-21T23:52:59.418Z,-3.40
2019-01-21T23:55:28.583Z,-3.30
2019-01-21T23:57:57.769Z,-3.40
